sensor_id;sensor_type;location;lat;lon;timestamp;temperature;humidity
37528;DHT22;23372;52.050;4.810;2023-04-01T00:00:30;9.90;99.90
37528;DHT22;23372;52.050;4.810;2023-04-01T00:02:56;10.00;99.90
37528;DHT22;23372;52.050;4.810;2023-04-01T00:05:22;9.90;99.90
37528;DHT22;23372;52.050;4.810;2023-04-01T00:07:49;9.90;99.90
37528;DHT22;23372;52.050;4.810;2023-04-01T00:10:15;9.90;99.90
37528;DHT22;23372;52.050;4.810;2023-04-01T00:12:41;9.90;99.90
37528;DHT22;23372;52.050;4.810;2023-04-01T00:15:09;9.90;99.90
37528;DHT22;23372;52.050;4.810;2023-04-01T00:17:35;9.90;99.90
37528;DHT22;23372;52.050;4.810;2023-04-01T00:20:01;9.90;99.90
37528;DHT22;23372;52.050;4.810;2023-04-01T00:22:27;9.80;99.90
37528;DHT22;23372;52.050;4.810;2023-04-01T00:24:53;9.80;99.90
37528;DHT22;23372;52.050;4.810;2023-04-01T00:27:19;9.80;99.90
37528;DHT22;23372;52.050;4.810;2023-04-01T00:29:46;9.80;99.90
37528;DHT22;23372;52.050;4.810;2023-04-01T00:32:14;9.70;99.90
37528;DHT22;23372;52.050;4.810;2023-04-01T00:34:40;9.80;99.90
37528;DHT22;23372;52.050;4.810;2023-04-01T00:37:06;9.70;99.90
37528;DHT22;23372;52.050;4.810;2023-04-01T00:39:33;9.70;99.90
37528;DHT22;23372;52.050;4.810;2023-04-01T00:41:59;9.60;99.90
37528;DHT22;23372;52.050;4.810;2023-04-01T00:44:28;9.70;99.90
37528;DHT22;23372;52.050;4.810;2023-04-01T00:46:55;9.70;99.90
37528;DHT22;23372;52.050;4.810;2023-04-01T00:49:25;9.80;99.90
37528;DHT22;23372;52.050;4.810;2023-04-01T00:51:54;9.70;99.90
37528;DHT22;23372;52.050;4.810;2023-04-01T00:54:21;9.70;99.90
37528;DHT22;23372;52.050;4.810;2023-04-01T00:56:58;9.70;99.90
37528;DHT22;23372;52.050;4.810;2023-04-01T00:59:30;9.70;99.90
37528;DHT22;23372;52.050;4.810;2023-04-01T01:01:56;9.70;99.90
37528;DHT22;23372;52.050;4.810;2023-04-01T01:04:27;9.70;99.90
37528;DHT22;23372;52.050;4.810;2023-04-01T01:10:08;9.60;99.90
37528;DHT22;23372;52.050;4.810;2023-04-01T01:12:46;9.60;99.90
37528;DHT22;23372;52.050;4.810;2023-04-01T01:15:32;9.70;99.90
37528;DHT22;23372;52.050;4.810;2023-04-01T01:23:29;9.60;99.90
37528;DHT22;23372;52.050;4.810;2023-04-01T01:31:37;9.60;99.90
37528;DHT22;23372;52.050;4.810;2023-04-01T01:37:01;9.60;99.90
37528;DHT22;23372;52.050;4.810;2023-04-01T01:39:31;9.70;99.90
37528;DHT22;23372;52.050;4.810;2023-04-01T01:42:02;9.60;99.90
37528;DHT22;23372;52.050;4.810;2023-04-01T01:44:30;9.60;99.90
37528;DHT22;23372;52.050;4.810;2023-04-01T01:46:58;9.60;99.90
37528;DHT22;23372;52.050;4.810;2023-04-01T01:49:27;9.50;99.90
37528;DHT22;23372;52.050;4.810;2023-04-01T01:51:53;9.60;99.90
37528;DHT22;23372;52.050;4.810;2023-04-01T01:54:18;9.50;99.90
37528;DHT22;23372;52.050;4.810;2023-04-01T01:56:46;9.60;99.90
37528;DHT22;23372;52.050;4.810;2023-04-01T01:59:14;9.60;99.90
37528;DHT22;23372;52.050;4.810;2023-04-01T02:01:43;9.50;99.90
37528;DHT22;23372;52.050;4.810;2023-04-01T02:04:11;9.50;99.90
37528;DHT22;23372;52.050;4.810;2023-04-01T02:06:41;9.60;99.90
37528;DHT22;23372;52.050;4.810;2023-04-01T02:09:09;9.60;99.90
37528;DHT22;23372;52.050;4.810;2023-04-01T02:12:18;9.60;99.90
37528;DHT22;23372;52.050;4.810;2023-04-01T02:14:55;9.60;99.90
37528;DHT22;23372;52.050;4.810;2023-04-01T02:17:25;9.50;99.90
37528;DHT22;23372;52.050;4.810;2023-04-01T02:20:15;9.60;99.90
37528;DHT22;23372;52.050;4.810;2023-04-01T02:22:47;9.60;99.90
37528;DHT22;23372;52.050;4.810;2023-04-01T02:25:16;9.50;99.90
37528;DHT22;23372;52.050;4.810;2023-04-01T02:27:43;9.50;99.90
37528;DHT22;23372;52.050;4.810;2023-04-01T02:30:11;9.50;99.90
37528;DHT22;23372;52.050;4.810;2023-04-01T02:32:38;9.60;99.90
37528;DHT22;23372;52.050;4.810;2023-04-01T02:35:06;9.50;99.90
37528;DHT22;23372;52.050;4.810;2023-04-01T02:37:33;9.60;99.90
37528;DHT22;23372;52.050;4.810;2023-04-01T02:40:03;9.50;99.90
37528;DHT22;23372;52.050;4.810;2023-04-01T02:42:31;9.50;99.90
37528;DHT22;23372;52.050;4.810;2023-04-01T02:44:57;9.60;99.90
37528;DHT22;23372;52.050;4.810;2023-04-01T02:47:23;9.60;99.90
37528;DHT22;23372;52.050;4.810;2023-04-01T02:49:48;9.60;99.90
37528;DHT22;23372;52.050;4.810;2023-04-01T02:52:14;9.60;99.90
37528;DHT22;23372;52.050;4.810;2023-04-01T02:54:39;9.60;99.90
37528;DHT22;23372;52.050;4.810;2023-04-01T02:57:05;9.60;99.90
37528;DHT22;23372;52.050;4.810;2023-04-01T02:59:31;9.60;99.90
37528;DHT22;23372;52.050;4.810;2023-04-01T03:01:57;9.70;99.90
37528;DHT22;23372;52.050;4.810;2023-04-01T03:04:22;9.70;99.90
37528;DHT22;23372;52.050;4.810;2023-04-01T03:06:48;9.70;99.90
37528;DHT22;23372;52.050;4.810;2023-04-01T03:09:13;9.60;99.90
37528;DHT22;23372;52.050;4.810;2023-04-01T03:11:39;9.60;99.90
37528;DHT22;23372;52.050;4.810;2023-04-01T03:14:06;9.70;99.90
37528;DHT22;23372;52.050;4.810;2023-04-01T03:16:32;9.70;99.90
37528;DHT22;23372;52.050;4.810;2023-04-01T03:18:58;9.80;99.90
37528;DHT22;23372;52.050;4.810;2023-04-01T03:21:25;9.80;99.90
37528;DHT22;23372;52.050;4.810;2023-04-01T03:23:51;9.80;99.90
37528;DHT22;23372;52.050;4.810;2023-04-01T03:26:17;9.80;99.90
37528;DHT22;23372;52.050;4.810;2023-04-01T03:28:43;9.90;99.90
37528;DHT22;23372;52.050;4.810;2023-04-01T03:31:09;9.90;99.90
37528;DHT22;23372;52.050;4.810;2023-04-01T03:33:35;9.80;99.90
37528;DHT22;23372;52.050;4.810;2023-04-01T03:36:00;9.80;99.90
37528;DHT22;23372;52.050;4.810;2023-04-01T03:38:26;9.90;99.90
37528;DHT22;23372;52.050;4.810;2023-04-01T03:40:52;9.90;99.90
37528;DHT22;23372;52.050;4.810;2023-04-01T03:43:17;9.90;99.90
37528;DHT22;23372;52.050;4.810;2023-04-01T03:45:48;10.00;99.90
37528;DHT22;23372;52.050;4.810;2023-04-01T03:48:15;10.00;99.90
37528;DHT22;23372;52.050;4.810;2023-04-01T03:50:41;10.00;99.90
37528;DHT22;23372;52.050;4.810;2023-04-01T03:53:06;10.00;99.90
37528;DHT22;23372;52.050;4.810;2023-04-01T03:55:32;10.00;99.90
37528;DHT22;23372;52.050;4.810;2023-04-01T03:57:59;9.90;99.90
37528;DHT22;23372;52.050;4.810;2023-04-01T04:00:24;9.90;99.90
37528;DHT22;23372;52.050;4.810;2023-04-01T04:02:50;9.90;99.90
37528;DHT22;23372;52.050;4.810;2023-04-01T04:05:16;10.00;99.90
37528;DHT22;23372;52.050;4.810;2023-04-01T04:07:41;9.90;99.90
37528;DHT22;23372;52.050;4.810;2023-04-01T04:10:07;9.90;99.90
37528;DHT22;23372;52.050;4.810;2023-04-01T04:12:33;9.90;99.90
37528;DHT22;23372;52.050;4.810;2023-04-01T04:14:58;9.80;99.90
37528;DHT22;23372;52.050;4.810;2023-04-01T04:17:24;9.80;99.90
37528;DHT22;23372;52.050;4.810;2023-04-01T04:19:49;9.90;99.90
37528;DHT22;23372;52.050;4.810;2023-04-01T04:22:15;9.90;99.90
37528;DHT22;23372;52.050;4.810;2023-04-01T04:24:40;9.90;99.90
37528;DHT22;23372;52.050;4.810;2023-04-01T04:27:06;9.80;99.90
37528;DHT22;23372;52.050;4.810;2023-04-01T04:29:31;9.80;99.90
37528;DHT22;23372;52.050;4.810;2023-04-01T04:31:57;9.90;99.90
37528;DHT22;23372;52.050;4.810;2023-04-01T04:34:23;9.80;99.90
37528;DHT22;23372;52.050;4.810;2023-04-01T04:36:48;9.90;99.90
37528;DHT22;23372;52.050;4.810;2023-04-01T04:39:15;9.90;99.90
37528;DHT22;23372;52.050;4.810;2023-04-01T04:41:41;9.80;99.90
37528;DHT22;23372;52.050;4.810;2023-04-01T04:44:07;9.80;99.90
37528;DHT22;23372;52.050;4.810;2023-04-01T04:46:32;9.90;99.90
37528;DHT22;23372;52.050;4.810;2023-04-01T04:48:58;9.90;99.90
37528;DHT22;23372;52.050;4.810;2023-04-01T04:51:24;9.80;99.90
37528;DHT22;23372;52.050;4.810;2023-04-01T04:53:50;9.90;99.90
37528;DHT22;23372;52.050;4.810;2023-04-01T04:56:20;9.80;99.90
37528;DHT22;23372;52.050;4.810;2023-04-01T04:58:46;9.90;99.90
37528;DHT22;23372;52.050;4.810;2023-04-01T05:01:13;9.80;99.90
37528;DHT22;23372;52.050;4.810;2023-04-01T05:03:39;9.80;99.90
37528;DHT22;23372;52.050;4.810;2023-04-01T05:06:06;9.90;99.90
37528;DHT22;23372;52.050;4.810;2023-04-01T05:08:32;9.80;99.90
37528;DHT22;23372;52.050;4.810;2023-04-01T05:10:58;9.80;99.90
37528;DHT22;23372;52.050;4.810;2023-04-01T05:13:24;9.90;99.90
37528;DHT22;23372;52.050;4.810;2023-04-01T05:15:50;9.70;99.90
37528;DHT22;23372;52.050;4.810;2023-04-01T05:18:16;9.80;99.90
37528;DHT22;23372;52.050;4.810;2023-04-01T05:20:50;9.80;99.90
37528;DHT22;23372;52.050;4.810;2023-04-01T05:23:16;9.80;99.90
37528;DHT22;23372;52.050;4.810;2023-04-01T05:25:42;9.80;99.90
37528;DHT22;23372;52.050;4.810;2023-04-01T05:28:08;9.70;99.90
37528;DHT22;23372;52.050;4.810;2023-04-01T05:30:34;9.80;99.90
37528;DHT22;23372;52.050;4.810;2023-04-01T05:32:59;9.80;99.90
37528;DHT22;23372;52.050;4.810;2023-04-01T05:35:25;9.70;99.90
37528;DHT22;23372;52.050;4.810;2023-04-01T05:37:51;9.70;99.90
37528;DHT22;23372;52.050;4.810;2023-04-01T05:40:16;9.80;99.90
37528;DHT22;23372;52.050;4.810;2023-04-01T05:42:42;9.70;99.90
37528;DHT22;23372;52.050;4.810;2023-04-01T05:45:08;9.70;99.90
37528;DHT22;23372;52.050;4.810;2023-04-01T05:47:34;9.70;99.90
37528;DHT22;23372;52.050;4.810;2023-04-01T05:49:59;9.70;99.90
37528;DHT22;23372;52.050;4.810;2023-04-01T05:52:25;9.70;99.90
37528;DHT22;23372;52.050;4.810;2023-04-01T05:54:51;9.80;99.90
37528;DHT22;23372;52.050;4.810;2023-04-01T05:57:16;9.70;99.90
37528;DHT22;23372;52.050;4.810;2023-04-01T05:59:42;9.70;99.90
37528;DHT22;23372;52.050;4.810;2023-04-01T06:02:08;9.70;99.90
37528;DHT22;23372;52.050;4.810;2023-04-01T06:04:38;9.80;99.90
37528;DHT22;23372;52.050;4.810;2023-04-01T06:07:12;9.80;99.90
37528;DHT22;23372;52.050;4.810;2023-04-01T06:09:38;9.80;99.90
37528;DHT22;23372;52.050;4.810;2023-04-01T06:12:31;9.70;99.90
37528;DHT22;23372;52.050;4.810;2023-04-01T06:18:13;9.70;99.90
37528;DHT22;23372;52.050;4.810;2023-04-01T06:37:14;9.80;99.90
37528;DHT22;23372;52.050;4.810;2023-04-01T06:43:09;9.70;99.90
37528;DHT22;23372;52.050;4.810;2023-04-01T06:45:45;9.70;99.90
37528;DHT22;23372;52.050;4.810;2023-04-01T06:48:20;9.90;99.90
37528;DHT22;23372;52.050;4.810;2023-04-01T06:54:24;9.80;99.90
37528;DHT22;23372;52.050;4.810;2023-04-01T06:56:58;9.80;99.90
37528;DHT22;23372;52.050;4.810;2023-04-01T06:59:26;9.80;99.90
37528;DHT22;23372;52.050;4.810;2023-04-01T07:01:55;9.80;99.90
37528;DHT22;23372;52.050;4.810;2023-04-01T07:04:37;9.80;99.90
37528;DHT22;23372;52.050;4.810;2023-04-01T07:07:21;9.80;99.90
37528;DHT22;23372;52.050;4.810;2023-04-01T07:09:52;9.80;99.90
37528;DHT22;23372;52.050;4.810;2023-04-01T07:12:42;9.80;99.90
37528;DHT22;23372;52.050;4.810;2023-04-01T07:15:16;9.90;99.90
37528;DHT22;23372;52.050;4.810;2023-04-01T07:17:43;9.90;99.90
37528;DHT22;23372;52.050;4.810;2023-04-01T07:20:20;9.90;99.90
37528;DHT22;23372;52.050;4.810;2023-04-01T07:22:54;9.80;99.90
37528;DHT22;23372;52.050;4.810;2023-04-01T07:25:25;9.80;99.90
37528;DHT22;23372;52.050;4.810;2023-04-01T07:27:55;9.90;99.90
37528;DHT22;23372;52.050;4.810;2023-04-01T07:30:23;9.90;99.90
37528;DHT22;23372;52.050;4.810;2023-04-01T07:33:12;9.90;99.90
37528;DHT22;23372;52.050;4.810;2023-04-01T07:36:03;9.90;99.90
37528;DHT22;23372;52.050;4.810;2023-04-01T07:41:33;10.00;99.90
37528;DHT22;23372;52.050;4.810;2023-04-01T07:46:59;10.00;99.90
37528;DHT22;23372;52.050;4.810;2023-04-01T07:49:45;10.10;99.90
37528;DHT22;23372;52.050;4.810;2023-04-01T08:00:50;10.10;99.90
37528;DHT22;23372;52.050;4.810;2023-04-01T08:03:43;10.00;99.90
37528;DHT22;23372;52.050;4.810;2023-04-01T08:06:31;10.20;99.90
37528;DHT22;23372;52.050;4.810;2023-04-01T08:11:44;10.20;99.90
37528;DHT22;23372;52.050;4.810;2023-04-01T08:22:07;10.10;99.90
37528;DHT22;23372;52.050;4.810;2023-04-01T08:24:42;10.30;99.90
37528;DHT22;23372;52.050;4.810;2023-04-01T08:27:23;10.20;99.90
37528;DHT22;23372;52.050;4.810;2023-04-01T08:30:19;10.20;99.90
37528;DHT22;23372;52.050;4.810;2023-04-01T08:32:58;10.20;99.90
37528;DHT22;23372;52.050;4.810;2023-04-01T08:35:39;10.30;99.90
37528;DHT22;23372;52.050;4.810;2023-04-01T08:38:19;10.30;99.90
37528;DHT22;23372;52.050;4.810;2023-04-01T08:40:59;10.40;99.90
37528;DHT22;23372;52.050;4.810;2023-04-01T08:43:50;10.50;99.90
37528;DHT22;23372;52.050;4.810;2023-04-01T08:57:25;10.30;99.90
37528;DHT22;23372;52.050;4.810;2023-04-01T09:03:10;10.60;99.90
37528;DHT22;23372;52.050;4.810;2023-04-01T09:08:21;10.50;99.90
37528;DHT22;23372;52.050;4.810;2023-04-01T09:16:24;10.50;99.90
37528;DHT22;23372;52.050;4.810;2023-04-01T09:21:51;10.80;99.90
37528;DHT22;23372;52.050;4.810;2023-04-01T09:27:03;10.80;99.90
37528;DHT22;23372;52.050;4.810;2023-04-01T09:38:22;10.60;99.90
37528;DHT22;23372;52.050;4.810;2023-04-01T09:41:17;10.70;99.90
37528;DHT22;23372;52.050;4.810;2023-04-01T09:49:35;10.70;99.90
37528;DHT22;23372;52.050;4.810;2023-04-01T09:52:29;10.80;99.90
37528;DHT22;23372;52.050;4.810;2023-04-01T10:14:15;10.90;99.90
37528;DHT22;23372;52.050;4.810;2023-04-01T10:22:58;11.00;99.90
37528;DHT22;23372;52.050;4.810;2023-04-01T10:27:58;11.00;99.90
37528;DHT22;23372;52.050;4.810;2023-04-01T10:36:57;11.50;99.90
37528;DHT22;23372;52.050;4.810;2023-04-01T11:01:53;11.00;99.90
37528;DHT22;23372;52.050;4.810;2023-04-01T11:10:30;11.00;99.90
37528;DHT22;23372;52.050;4.810;2023-04-01T11:19:02;11.30;99.90
37528;DHT22;23372;52.050;4.810;2023-04-01T11:21:50;11.30;99.90
37528;DHT22;23372;52.050;4.810;2023-04-01T11:27:35;11.50;99.90
37528;DHT22;23372;52.050;4.810;2023-04-01T11:35:42;11.40;99.90
37528;DHT22;23372;52.050;4.810;2023-04-01T11:38:20;11.20;99.90
37528;DHT22;23372;52.050;4.810;2023-04-01T11:40:52;11.40;99.90
37528;DHT22;23372;52.050;4.810;2023-04-01T11:46:25;11.50;99.90
37528;DHT22;23372;52.050;4.810;2023-04-01T11:49:07;11.50;99.90
37528;DHT22;23372;52.050;4.810;2023-04-01T11:52:01;11.50;99.90
37528;DHT22;23372;52.050;4.810;2023-04-01T11:57:47;11.60;99.90
37528;DHT22;23372;52.050;4.810;2023-04-01T12:00:32;11.50;99.90
37528;DHT22;23372;52.050;4.810;2023-04-01T12:06:40;11.80;99.90
37528;DHT22;23372;52.050;4.810;2023-04-01T12:14:15;12.40;99.90
37528;DHT22;23372;52.050;4.810;2023-04-01T12:16:49;12.40;99.90
37528;DHT22;23372;52.050;4.810;2023-04-01T12:22:28;12.70;99.90
37528;DHT22;23372;52.050;4.810;2023-04-01T12:30:51;12.30;99.90
37528;DHT22;23372;52.050;4.810;2023-04-01T12:41:59;11.70;99.90
37528;DHT22;23372;52.050;4.810;2023-04-01T12:44:41;11.70;99.90
37528;DHT22;23372;52.050;4.810;2023-04-01T12:53:10;11.80;99.90
37528;DHT22;23372;52.050;4.810;2023-04-01T12:55:40;11.70;99.90
37528;DHT22;23372;52.050;4.810;2023-04-01T13:00:56;11.60;99.90
37528;DHT22;23372;52.050;4.810;2023-04-01T13:06:26;11.50;99.90
37528;DHT22;23372;52.050;4.810;2023-04-01T13:09:01;11.40;99.90
37528;DHT22;23372;52.050;4.810;2023-04-01T13:17:22;11.60;99.90
37528;DHT22;23372;52.050;4.810;2023-04-01T13:19:57;11.50;99.90
37528;DHT22;23372;52.050;4.810;2023-04-01T13:22:45;11.50;99.90
37528;DHT22;23372;52.050;4.810;2023-04-01T13:28:19;11.70;99.90
37528;DHT22;23372;52.050;4.810;2023-04-01T13:31:09;11.70;99.90
37528;DHT22;23372;52.050;4.810;2023-04-01T13:42:57;11.80;99.90
37528;DHT22;23372;52.050;4.810;2023-04-01T13:45:33;11.90;99.90
37528;DHT22;23372;52.050;4.810;2023-04-01T13:51:26;11.80;99.90
37528;DHT22;23372;52.050;4.810;2023-04-01T14:10:43;12.50;99.90
37528;DHT22;23372;52.050;4.810;2023-04-01T14:13:22;12.30;99.90
37528;DHT22;23372;52.050;4.810;2023-04-01T14:19:03;11.80;99.90
37528;DHT22;23372;52.050;4.810;2023-04-01T14:29:35;11.70;99.90
37528;DHT22;23372;52.050;4.810;2023-04-01T14:43:20;11.70;99.90
37528;DHT22;23372;52.050;4.810;2023-04-01T14:48:57;11.60;99.90
37528;DHT22;23372;52.050;4.810;2023-04-01T14:56:48;11.30;99.90
37528;DHT22;23372;52.050;4.810;2023-04-01T14:59:27;11.30;99.90
37528;DHT22;23372;52.050;4.810;2023-04-01T15:04:52;11.20;99.90
37528;DHT22;23372;52.050;4.810;2023-04-01T15:18:08;11.00;99.90
37528;DHT22;23372;52.050;4.810;2023-04-01T15:23:56;11.00;99.90
37528;DHT22;23372;52.050;4.810;2023-04-01T15:26:52;11.00;99.90
37528;DHT22;23372;52.050;4.810;2023-04-01T15:32:13;11.00;99.90
37528;DHT22;23372;52.050;4.810;2023-04-01T15:35:36;11.10;99.90
37528;DHT22;23372;52.050;4.810;2023-04-01T15:37:37;11.00;99.90
37528;DHT22;23372;52.050;4.810;2023-04-01T15:43:11;11.10;99.90
37528;DHT22;23372;52.050;4.810;2023-04-01T15:48:46;10.90;99.90
37528;DHT22;23372;52.050;4.810;2023-04-01T15:51:24;10.80;99.90
37528;DHT22;23372;52.050;4.810;2023-04-01T16:02:44;10.70;99.90
37528;DHT22;23372;52.050;4.810;2023-04-01T16:05:24;10.70;99.90
37528;DHT22;23372;52.050;4.810;2023-04-01T16:08:18;10.60;99.90
37528;DHT22;23372;52.050;4.810;2023-04-01T16:10:59;10.70;99.90
37528;DHT22;23372;52.050;4.810;2023-04-01T16:19:11;10.60;99.90
37528;DHT22;23372;52.050;4.810;2023-04-01T16:24:33;10.60;99.90
37528;DHT22;23372;52.050;4.810;2023-04-01T16:27:17;10.70;99.90
37528;DHT22;23372;52.050;4.810;2023-04-01T16:33:04;10.50;99.90
37528;DHT22;23372;52.050;4.810;2023-04-01T16:35:47;10.50;99.90
37528;DHT22;23372;52.050;4.810;2023-04-01T16:41:16;10.40;99.90
37528;DHT22;23372;52.050;4.810;2023-04-01T16:43:45;10.40;99.90
37528;DHT22;23372;52.050;4.810;2023-04-01T16:46:35;10.40;99.90
37528;DHT22;23372;52.050;4.810;2023-04-01T16:54:54;10.40;99.90
37528;DHT22;23372;52.050;4.810;2023-04-01T17:00:03;10.30;99.90
37528;DHT22;23372;52.050;4.810;2023-04-01T17:02:42;10.20;99.90
37528;DHT22;23372;52.050;4.810;2023-04-01T17:05:09;10.20;99.90
37528;DHT22;23372;52.050;4.810;2023-04-01T17:07:48;10.20;99.90
37528;DHT22;23372;52.050;4.810;2023-04-01T17:18:24;10.20;99.90
37528;DHT22;23372;52.050;4.810;2023-04-01T17:23:38;10.10;99.90
37528;DHT22;23372;52.050;4.810;2023-04-01T17:26:42;10.00;99.90
37528;DHT22;23372;52.050;4.810;2023-04-01T17:34:26;10.00;99.90
37528;DHT22;23372;52.050;4.810;2023-04-01T17:42:40;9.90;99.90
37528;DHT22;23372;52.050;4.810;2023-04-01T17:45:31;9.70;99.90
37528;DHT22;23372;52.050;4.810;2023-04-01T17:59:37;9.60;99.90
37528;DHT22;23372;52.050;4.810;2023-04-01T18:02:25;9.70;99.90
37528;DHT22;23372;52.050;4.810;2023-04-01T18:07:30;9.60;99.90
37528;DHT22;23372;52.050;4.810;2023-04-01T18:23:31;9.50;99.90
37528;DHT22;23372;52.050;4.810;2023-04-01T18:26:18;9.50;99.90
37528;DHT22;23372;52.050;4.810;2023-04-01T18:28:57;9.40;99.90
37528;DHT22;23372;52.050;4.810;2023-04-01T18:31:31;9.40;99.90
37528;DHT22;23372;52.050;4.810;2023-04-01T18:36:55;9.40;99.90
37528;DHT22;23372;52.050;4.810;2023-04-01T18:39:30;9.40;99.90
37528;DHT22;23372;52.050;4.810;2023-04-01T18:53:23;9.30;99.90
37528;DHT22;23372;52.050;4.810;2023-04-01T18:56:04;9.30;99.90
37528;DHT22;23372;52.050;4.810;2023-04-01T18:58:56;9.30;99.90
37528;DHT22;23372;52.050;4.810;2023-04-01T19:01:52;9.30;99.90
37528;DHT22;23372;52.050;4.810;2023-04-01T19:04:50;9.30;99.90
37528;DHT22;23372;52.050;4.810;2023-04-01T19:10:14;9.20;99.90
37528;DHT22;23372;52.050;4.810;2023-04-01T19:15:49;9.20;99.90
37528;DHT22;23372;52.050;4.810;2023-04-01T19:21:28;9.10;99.90
37528;DHT22;23372;52.050;4.810;2023-04-01T19:38:37;9.00;99.90
37528;DHT22;23372;52.050;4.810;2023-04-01T19:57:48;8.80;99.90
37528;DHT22;23372;52.050;4.810;2023-04-01T20:00:34;8.90;99.90
37528;DHT22;23372;52.050;4.810;2023-04-01T20:05:51;8.80;99.90
37528;DHT22;23372;52.050;4.810;2023-04-01T20:21:59;8.60;99.90
37528;DHT22;23372;52.050;4.810;2023-04-01T20:24:41;8.60;99.90
37528;DHT22;23372;52.050;4.810;2023-04-01T20:35:15;8.50;99.90
37528;DHT22;23372;52.050;4.810;2023-04-01T20:38:04;8.50;99.90
37528;DHT22;23372;52.050;4.810;2023-04-01T20:40:34;8.50;99.90
37528;DHT22;23372;52.050;4.810;2023-04-01T20:43:29;8.50;99.90
37528;DHT22;23372;52.050;4.810;2023-04-01T20:49:23;8.40;99.90
37528;DHT22;23372;52.050;4.810;2023-04-01T21:03:34;8.10;99.90
37528;DHT22;23372;52.050;4.810;2023-04-01T21:11:43;8.10;99.90
37528;DHT22;23372;52.050;4.810;2023-04-01T21:17:17;8.00;99.90
37528;DHT22;23372;52.050;4.810;2023-04-01T21:22:44;8.00;99.90
37528;DHT22;23372;52.050;4.810;2023-04-01T21:28:19;8.00;99.90
37528;DHT22;23372;52.050;4.810;2023-04-01T21:31:18;8.10;99.90
37528;DHT22;23372;52.050;4.810;2023-04-01T21:33:53;8.00;99.90
37528;DHT22;23372;52.050;4.810;2023-04-01T21:36:52;8.00;99.90
37528;DHT22;23372;52.050;4.810;2023-04-01T21:40:18;7.90;99.90
37528;DHT22;23372;52.050;4.810;2023-04-01T21:51:29;7.80;99.90
37528;DHT22;23372;52.050;4.810;2023-04-01T21:54:08;7.80;99.90
37528;DHT22;23372;52.050;4.810;2023-04-01T22:00:07;7.70;99.90
37528;DHT22;23372;52.050;4.810;2023-04-01T22:02:36;7.70;99.90
37528;DHT22;23372;52.050;4.810;2023-04-01T22:05:16;7.80;99.90
37528;DHT22;23372;52.050;4.810;2023-04-01T22:10:43;7.80;99.90
37528;DHT22;23372;52.050;4.810;2023-04-01T22:13:26;7.80;99.90
37528;DHT22;23372;52.050;4.810;2023-04-01T22:16:37;7.80;99.90
37528;DHT22;23372;52.050;4.810;2023-04-01T22:19:20;7.70;99.90
37528;DHT22;23372;52.050;4.810;2023-04-01T22:24:35;7.60;99.90
37528;DHT22;23372;52.050;4.810;2023-04-01T22:27:31;7.60;99.90
37528;DHT22;23372;52.050;4.810;2023-04-01T22:30:24;7.60;99.90
37528;DHT22;23372;52.050;4.810;2023-04-01T22:43:36;7.60;99.90
37528;DHT22;23372;52.050;4.810;2023-04-01T22:49:03;7.60;99.90
37528;DHT22;23372;52.050;4.810;2023-04-01T22:51:53;7.50;99.90
37528;DHT22;23372;52.050;4.810;2023-04-01T22:54:28;7.50;99.90
37528;DHT22;23372;52.050;4.810;2023-04-01T22:57:32;7.50;99.90
37528;DHT22;23372;52.050;4.810;2023-04-01T23:00:01;7.50;99.90
37528;DHT22;23372;52.050;4.810;2023-04-01T23:02:37;7.50;99.90
37528;DHT22;23372;52.050;4.810;2023-04-01T23:05:05;7.50;99.90
37528;DHT22;23372;52.050;4.810;2023-04-01T23:08:21;7.50;99.90
37528;DHT22;23372;52.050;4.810;2023-04-01T23:10:54;7.40;99.90
37528;DHT22;23372;52.050;4.810;2023-04-01T23:13:41;7.40;99.90
37528;DHT22;23372;52.050;4.810;2023-04-01T23:16:09;7.40;99.90
37528;DHT22;23372;52.050;4.810;2023-04-01T23:18:45;7.50;99.90
37528;DHT22;23372;52.050;4.810;2023-04-01T23:21:21;7.50;99.90
37528;DHT22;23372;52.050;4.810;2023-04-01T23:26:23;7.40;99.90
37528;DHT22;23372;52.050;4.810;2023-04-01T23:28:55;7.30;99.90
37528;DHT22;23372;52.050;4.810;2023-04-01T23:31:44;7.30;99.90
37528;DHT22;23372;52.050;4.810;2023-04-01T23:36:46;7.20;99.90
37528;DHT22;23372;52.050;4.810;2023-04-01T23:39:22;7.30;99.90
37528;DHT22;23372;52.050;4.810;2023-04-01T23:41:48;7.30;99.90
37528;DHT22;23372;52.050;4.810;2023-04-01T23:44:15;7.30;99.90
37528;DHT22;23372;52.050;4.810;2023-04-01T23:46:44;7.30;99.90
37528;DHT22;23372;52.050;4.810;2023-04-01T23:49:14;7.30;99.90
37528;DHT22;23372;52.050;4.810;2023-04-01T23:52:04;7.20;99.90
37528;DHT22;23372;52.050;4.810;2023-04-01T23:57:12;7.20;99.90
37528;DHT22;23372;52.050;4.810;2023-04-01T23:59:39;7.20;99.90
